Detall de PIREP

Printer-friendly versionPDF version

[2012/02/27 09:28:00]
Flight IATA:CT3118
Pilot Number:011
Company ICAO:CAT
Aircraft Type:F28/A
PAX:85
Departing Airport: LEPA
Destination Airport: LFMP
Alternate Airport:LFBO
Online: VATSIM
Route:GALAT N861 LATRO H110 BGR/N0300F180 A27 KANIG
Flight Level:F200
No Slew and time accel
No pause
Crash detect
Detect pilot in Cockpit between each 30 and 45 minutes
09:28 Zero fuel Weight: 60656 Lbs, Fuel Weight: 9303 Lbs
09:28 VATSIM:LEPA 270900Z 04015KT CAVOK 14/06 Q1024 NOSIG
09:28 VATSIM:LFMP 270900Z 31015KT 9999 FEW033 SCT250 13/04 Q1024 NOSIG
09:29 Parking Brakes off
09:41 Take-off
09:41 Take off Weight: 69481 Lbs
09:41 Wind: 052º @ 017 Knots Heading: 058º
09:41 POS N39º 33´ 14´´ E002º 43´ 31´´
09:41 Flaps:2 at 163 Knots
09:41 Gear Up: 167 Knots
09:42 Flaps:1 at 198 Knots
09:42 Flaps:0 at 205 Knots
09:52 TOC
09:52 Fuel Weight: 7427 Lb
09:56 Wind:040º@025 Knots Heading: 338º Ground Speed: 416 Knots Altitude 20334 ft
10:11 Wind:267º@015 Knots Heading: 062º Ground Speed: 402 Knots Altitude 20334 ft
10:18 TOD
10:18 Fuel Weight: 5091 Lb
10:26 Wind:309º@030 Knots Heading: 338º Ground Speed: 239 Knots Altitude 7043 ft
10:34 Flaps:1 at 220 Knots
10:34 Flaps:2 at 190 Knots
10:35 Flaps:3 at 170 Knots
10:36 Flaps:4 at 161 Knots
10:36 Gear Down: 160 Knots
10:37 Flaps:5 at 147 Knots
10:41 Wind:332º@014 Knots Heading: 327º Ground Speed: 121 Knots Altitude 505 ft
10:42 TouchDown:Rate -159 ft/min Speed: 115 Knots
10:42 VATSIM:LFMP 271030Z 33012KT CAVOK 15/02 Q1023 NOSIG
10:42 Land
10:42 Wind:332º@012 Knots
10:42 Heading: 328º
10:42 Flight Duration: 01:01
10:42 Landing Weight: 64544 Lbs
10:42 POS N42º 44´ 42´´ E002º 52´ 09´´
10:46 Parking brakes on
10:46 Block to Block Duration: 01:17
10:46 Final Fuel: 3721 Lbls
10:46 Spent Fuel: 5582 Lbls
10:46 Flight Length: 129 NM
10:46 TOD Land Length: 38 NM

Exportar CSV

Powered by Drupal - Modified by Danger4k